Latest Weather Observations for Cape Willoughby

IDS60801

Issued at 4:01 pm CST Wednesday 24 August 2016 (issued every 30 minutes, with the page automatically refreshed every 10 minutes)

About weather observations | Map of weather stations | Latest weather observations for SA | Other Formats
Station Details ID: 022803 Name: CAPE WILLOUGHBY Lat: -35.84 Lon: 138.13 Height: 55.0 m
Data from the previous 72 hours. | See also: Recent months at Cape Willoughby
Date/Time
CST
Temp
°C
App
Temp
°C
Dew
Point
°C
Rel
Hum
%
Delta-T
°C
Wind Press
QNH
hPa
Press
MSL
hPa
Rain since
9am
mm
Dir  Spd
km/h
Gust
km/h
Spd
kts
Gust
kts
24/04:00pm 11.3 6.2 4.3 62 3.1 ESE 20 26 11 14 1015.5 1015.6 0.0
24/03:30pm 11.5 6.7 5.6 67 2.7 ESE 20 24 11 13 1015.6 1015.7 0.0
24/03:00pm 11.7 7.1 6.4 70 2.5 ESE 20 26 11 14 1015.6 1015.7 0.0
24/02:30pm 12.0 7.5 6.9 71 2.4 ESE 20 28 11 15 1015.6 1015.7 0.0
24/02:00pm 12.1 7.4 6.2 67 2.8 ESE 20 26 11 14 1015.6 1015.7 0.0
24/01:30pm 12.2 7.8 6.5 68 2.7 ESE 19 24 10 13 1015.7 1015.8 0.0
24/01:00pm 12.4 7.9 7.1 70 2.6 E 20 22 11 12 1016.1 1016.2 0.0
24/12:30pm 12.4 8.1 7.1 70 2.6 E 19 26 10 14 1016.2 1016.3 0.0
24/12:00pm 12.5 8.3 7.4 71 2.5 E 19 24 10 13 1016.4 1016.5 0.0
24/11:30am 12.4 7.9 7.1 70 2.6 E 20 24 11 13 1016.7 1016.8 0.0
24/11:00am 12.7 8.3 7.4 70 2.6 E 20 26 11 14 1016.6 1016.7 0.0
24/10:30am 12.7 8.5 7.6 71 2.5 E 19 22 10 12 1016.6 1016.7 0.0
24/10:00am 12.5 8.4 8.0 74 2.2 E 19 22 10 12 1016.6 1016.7 0.0
24/09:30am 12.4 8.3 7.9 74 2.2 E 19 22 10 12 1016.8 1016.9 0.0
24/09:00am 12.2 8.0 7.3 72 2.4 E 19 22 10 12 1016.8 1016.9 0.2
24/08:30am 12.0 8.1 7.3 73 2.3 ESE 17 22 9 12 1016.7 1016.8 0.2
24/08:00am 12.0 8.3 7.9 76 2.0 ESE 17 22 9 12 1016.7 1016.8 0.2
24/07:30am 11.3 8.1 7.0 75 2.1 ESE 13 19 7 10 1016.5 1016.6 0.2
24/07:00am 11.1 7.8 6.6 74 2.1 ESE 13 17 7 9 1016.4 1016.5 0.2
24/06:30am 10.9 8.6 7.6 80 1.6 E 9 15 5 8 1016.1 1016.2 0.2
24/06:00am 10.5 8.6 7.6 82 1.4 E 7 9 4 5 1015.9 1016.0 0.2
24/05:30am 10.5 8.6 7.6 82 1.4 ENE 7 9 4 5 1015.9 1016.0 0.2
24/05:00am 10.5 8.8 7.4 81 1.5 ENE 6 7 3 4 1015.8 1015.9 0.2
24/04:30am 10.6 8.3 7.5 81 1.5 ENE 9 13 5 7 1015.8 1015.9 0.2
24/04:00am 10.7 8.4 7.6 81 1.5 ENE 9 13 5 7 1015.7 1015.8 0.2
24/03:30am 10.6 7.6 7.5 81 1.5 NE 13 15 7 8 1015.6 1015.7 0.2
24/03:00am 10.7 8.1 7.6 81 1.5 NE 11 15 6 8 1015.8 1015.9 0.2
24/02:30am 10.5 7.5 7.6 82 1.4 NE 13 17 7 9 1016.0 1016.1 0.2
24/02:00am 10.8 8.2 7.7 81 1.5 NE 11 15 6 8 1016.2 1016.3 0.2
24/01:30am 11.0 7.6 7.5 79 1.7 NE 15 19 8 10 1016.4 1016.5 0.2
24/01:00am 11.7 7.4 7.8 77 1.9 E 20 28 11 15 1016.3 1016.4 0.2
24/12:30am 11.8 6.8 8.1 78 1.8 E 24 32 13 17 1016.2 1016.3 0.2
24/12:00am 11.6 6.5 7.5 76 2.0 E 24 28 13 15 1016.4 1016.5 0.2
 
Date/Time
CST
Temp
°C
App
Temp
°C
Dew
Point
°C
Rel
Hum
%
Delta-T
°C
Wind Press
QNH
hPa
Press
MSL
hPa
Rain since
9am
mm
Dir  Spd
km/h
Gust
km/h
Spd
kts
Gust
kts
23/11:30pm 11.8 6.4 7.9 77 1.9 E 26 30 14 16 1016.5 1016.6 0.2
23/11:00pm 11.8 7.0 7.5 75 2.1 E 22 28 12 15 1016.7 1016.8 0.0
23/10:30pm 11.7 6.9 7.2 74 2.2 E 22 28 12 15 1016.9 1017.0 0.0
23/10:00pm 11.6 7.1 6.9 73 2.2 E 20 24 11 13 1016.9 1017.0 0.0
23/09:30pm 11.5 7.3 7.4 76 2.0 E 19 22 10 12 1016.8 1016.9 0.0
23/09:00pm 11.4 7.2 7.5 77 1.9 E 19 22 10 12 1016.9 1017.0 0.0
23/08:30pm 11.3 6.8 7.0 75 2.1 E 20 24 11 13 1016.9 1017.0 0.0
23/08:00pm 11.2 6.6 6.7 74 2.1 ESE 20 24 11 13 1016.6 1016.7 0.0
23/07:30pm 11.0 6.4 6.6 74 2.1 ESE 20 24 11 13 1016.5 1016.6 0.0
23/07:00pm 11.0 6.7 6.9 76 2.0 ESE 19 26 10 14 1016.6 1016.7 0.0
23/06:30pm 10.9 6.4 6.8 76 1.9 ESE 20 24 11 13 1016.6 1016.7 0.0
23/06:00pm 10.8 6.3 7.1 78 1.8 SE 20 24 11 13 1016.5 1016.6 0.0
23/05:30pm 11.1 6.9 7.4 78 1.8 ESE 19 22 10 12 1016.5 1016.6 0.0
23/05:00pm 11.1 6.8 7.0 76 2.0 ESE 19 22 10 12 1016.4 1016.5 0.0
23/04:30pm 11.4 7.2 7.3 76 2.0 ESE 19 24 10 13 1016.4 1016.5 0.0
23/04:00pm 11.6 7.8 7.7 77 1.9 ESE 17 24 9 13 1016.3 1016.4 0.0
23/03:30pm 11.6 7.8 7.5 76 2.0 ESE 17 22 9 12 1016.4 1016.5 0.0
23/03:00pm 11.8 7.6 7.5 75 2.1 ESE 19 24 10 13 1016.3 1016.4 0.0
23/02:30pm 12.0 8.3 8.1 77 1.9 ESE 17 22 9 12 1016.4 1016.5 0.0
23/02:00pm 12.1 8.5 8.2 77 1.9 ESE 17 20 9 11 1016.5 1016.6 0.0
23/01:30pm 12.2 9.0 8.5 78 1.8 ESE 15 20 8 11 1016.5 1016.6 0.0
23/01:00pm 12.2 8.6 8.5 78 1.8 ESE 17 19 9 10 1016.8 1016.9 0.0
23/12:30pm 12.4 9.0 9.1 80 1.7 E 17 20 9 11 1017.1 1017.2 0.0
23/12:00pm 11.9 8.8 8.7 81 1.6 E 15 17 8 9 1017.3 1017.4 0.0
23/11:30am 11.8 8.6 8.3 79 1.7 E 15 19 8 10 1017.6 1017.7 0.0
23/11:00am 11.9 8.3 8.4 79 1.7 ENE 17 20 9 11 1017.9 1018.0 0.0
23/10:30am 11.7 7.7 8.2 79 1.7 E 19 24 10 13 1017.9 1018.0 0.0
23/10:00am 11.7 7.5 8.2 79 1.7 E 20 26 11 14 1017.8 1017.9 0.0
23/09:30am 11.7 7.5 8.4 80 1.6 E 20 26 11 14 1017.7 1017.8 0.0
23/09:00am 12.2 7.7 8.7 79 1.7 E 22 28 12 15 1017.4 1017.5 0.6
23/08:30am 11.9 7.7 8.4 79 1.7 ESE 20 28 11 15 1017.2 1017.3 0.6
23/08:00am 11.7 7.5 8.2 79 1.7 ESE 20 24 11 13 1017.0 1017.1 0.6
23/07:30am 11.2 7.0 8.1 81 1.5 ESE 20 24 11 13 1016.8 1016.9 0.6
23/07:00am 11.2 7.0 8.4 83 1.4 E 20 24 11 13 1016.9 1017.0 0.6
23/06:30am 11.2 7.2 8.4 83 1.4 ESE 19 24 10 13 1016.8 1016.9 0.6
23/06:00am 11.1 6.9 8.1 82 1.5 ESE 20 24 11 13 1016.6 1016.7 0.6
23/05:30am 11.1 7.0 8.5 84 1.3 E 20 24 11 13 1016.5 1016.6 0.6
23/05:00am 10.9 8.9 8.8 87 1.0 ENE 9 20 5 11 1016.5 1016.6 0.6
23/04:30am 10.3 7.2 8.7 90 0.8 ESE 15 22 8 12 1016.5 1016.6 0.6
23/04:00am 10.8 6.1 9.1 89 0.8 ESE 24 28 13 15 1016.2 1016.3 0.6
23/03:30am 11.3 7.0 9.2 87 1.1 ESE 22 28 12 15 1016.0 1016.1 0.6
23/03:00am 11.5 9.3 7.8 78 1.8 E 9 13 5 7 1016.1 1016.2 0.6
23/02:30am 11.6 9.5 8.3 80 1.6 ESE 9 13 5 7 1016.2 1016.3 0.6
23/02:00am 11.5 9.0 8.2 80 1.6 ESE 11 13 6 7 1016.3 1016.4 0.6
23/01:30am 11.4 8.4 7.9 79 1.7 ESE 13 17 7 9 1016.3 1016.4 0.6
23/01:00am 11.6 8.4 8.3 80 1.6 ESE 15 19 8 10 1016.2 1016.3 0.6
23/12:30am 11.5 8.2 8.2 80 1.6 SE 15 19 8 10 1016.2 1016.3 0.6
23/12:00am 11.6 8.4 8.3 80 1.6 SE 15 17 8 9 1016.3 1016.4 0.6
 
Date/Time
CST
Temp
°C
App
Temp
°C
Dew
Point
°C
Rel
Hum
%
Delta-T
°C
Wind Press
QNH
hPa
Press
MSL
hPa
Rain since
9am
mm
Dir  Spd
km/h
Gust
km/h
Spd
kts
Gust
kts
22/11:30pm 12.0 8.9 8.7 80 1.6 ESE 15 19 8 10 1016.3 1016.4 0.6
22/11:00pm 11.7 9.3 8.6 81 1.5 ESE 11 15 6 8 1016.4 1016.5 0.6
22/10:30pm 11.6 8.7 8.3 80 1.6 SE 13 15 7 8 1016.5 1016.6 0.6
22/10:00pm 11.8 8.6 8.5 80 1.6 SE 15 17 8 9 1016.6 1016.7 0.6
22/09:30pm 11.9 9.1 8.6 80 1.6 SE 13 15 7 8 1016.6 1016.7 0.6
22/09:00pm 11.9 10.0 8.9 82 1.5 SE 9 13 5 7 1016.4 1016.5 0.6
22/08:30pm 11.5 10.0 8.5 82 1.5 SSW 6 6 3 3 1016.2 1016.3 0.4
22/08:00pm 11.6 10.0 8.8 83 1.4 SSW 7 9 4 5 1015.9 1016.0 0.4
22/07:30pm 11.4 9.9 8.4 82 1.5 SSW 6 7 3 4 1015.7 1015.8 0.4
22/07:00pm 11.5 9.8 8.4 81 1.5 SSW 7 9 4 5 1015.5 1015.6 0.4
22/06:30pm 11.5 9.8 8.4 81 1.5 SSW 7 9 4 5 1015.1 1015.1 0.4
22/06:00pm 11.8 9.8 8.5 80 1.6 SSW 9 11 5 6 1014.8 1014.8 0.4
22/05:30pm 12.0 10.0 8.5 79 1.7 SSW 9 13 5 7 1014.6 1014.6 0.4
22/05:00pm 12.2 10.1 8.3 77 1.9 SSW 9 13 5 7 1014.4 1014.4 0.4
22/04:30pm 12.6 10.9 8.5 76 2.0 SSW 7 13 4 7 1014.3 1014.3 0.4
22/04:00pm 12.8 11.4 8.9 77 2.0 S 6 11 3 6 1013.9 1013.9 0.4
22/03:30pm 12.6 11.2 8.7 77 2.0 SSW 6 7 3 4 1013.9 1013.9 0.4
22/03:00pm 12.4 10.8 8.1 75 2.1 SSW 6 9 3 5 1013.7 1013.7 0.4
22/02:30pm 11.7 11.1 7.2 74 2.2 CALM 0 2 0 1 1013.7 1013.7 0.4
22/02:00pm 12.5 9.8 8.8 78 1.9 W 13 19 7 10 1013.9 1013.9 0.0
22/01:30pm 13.0 12.3 8.7 75 2.2 NNW 2 6 1 3 1013.9 1013.9 0.0
22/01:00pm 12.9 11.7 9.4 79 1.8 NNW 6 9 3 5 1014.0 1014.0 0.0
22/12:30pm 11.9 9.7 9.5 85 1.2 NNW 11 15 6 8 1014.3 1014.3 0.0
22/12:00pm 12.3 10.8 9.0 80 1.7 N 7 9 4 5 1014.4 1014.4 0.0
22/11:30am 12.6 11.5 8.5 76 2.0 S 4 6 2 3 1014.5 1014.5 0.0
22/11:00am 12.8 11.3 8.5 75 2.1 S 6 7 3 4 1014.6 1014.6 0.0
22/10:30am 12.7 11.3 8.8 77 2.0 S 6 7 3 4 1014.6 1014.6 0.0
22/10:00am 13.0 11.7 9.1 77 2.0 SSE 6 7 3 4 1014.4 1014.4 0.0
22/09:30am 12.7 11.6 8.4 75 2.1 S 4 7 2 4 1014.3 1014.3 0.0
22/09:00am 12.7 11.7 8.8 77 2.0 SW 4 7 2 4 1014.0 1014.0 10.8
22/08:30am 12.2 10.7 8.5 78 1.8 W 6 6 3 3 1014.0 1014.0 10.8
22/08:00am 11.5 9.9 8.0 79 1.7 W 6 6 3 3 1013.8 1013.8 10.8
22/07:30am 10.7 9.3 7.2 79 1.7 W 4 6 2 3 1013.5 1013.5 10.8
22/07:00am 10.2 7.7 6.7 79 1.6 WNW 9 9 5 5 1013.4 1013.4 10.8
22/06:30am 9.9 6.6 6.3 78 1.7 WNW 13 13 7 7 1013.3 1013.3 10.8
22/06:00am 9.7 6.0 6.4 80 1.5 WNW 15 15 8 8 1013.0 1013.0 10.8
22/05:30am 9.8 6.1 6.2 78 1.7 W 15 15 8 8 1012.9 1012.9 10.8
22/05:00am 9.8 5.4 6.5 80 1.5 WNW 19 20 10 11 1012.8 1012.8 10.8
22/04:30am 9.5 5.0 6.2 80 1.5 WNW 19 20 10 11 1012.8 1012.8 10.8
22/04:00am 9.3 5.2 6.0 80 1.5 WNW 17 17 9 9 1012.8 1012.8 10.8
22/03:30am 9.3 5.5 5.9 79 1.6 WNW 15 17 8 9 1012.9 1012.9 10.6
22/03:00am 9.7 5.9 5.9 77 1.7 W 15 17 8 9 1012.9 1012.9 10.6
22/02:30am 9.7 5.6 6.1 78 1.7 W 17 19 9 10 1013.0 1013.0 10.6
22/02:00am 9.1 4.5 5.8 80 1.5 WNW 19 19 10 10 1013.0 1013.0 10.6
22/01:30am 9.3 4.6 6.0 80 1.5 WNW 20 22 11 12 1013.1 1013.1 10.6
22/01:00am 9.6 5.0 6.5 81 1.4 WNW 20 22 11 12 1013.1 1013.1 10.6
22/12:30am 9.7 4.8 6.8 82 1.4 WNW 22 24 12 13 1013.1 1013.1 10.6
22/12:00am 9.5 4.5 6.4 81 1.4 WNW 22 24 12 13 1013.3 1013.3 10.6
 
Date/Time
CST
Temp
°C
App
Temp
°C
Dew
Point
°C
Rel
Hum
%
Delta-T
°C
Wind Press
QNH
hPa
Press
MSL
hPa
Rain since
9am
mm
Dir  Spd
km/h
Gust
km/h
Spd
kts
Gust
kts
21/11:30pm 9.5 4.5 6.6 82 1.4 WNW 22 22 12 12 1013.4 1013.4 10.6
21/11:00pm 9.1 4.6 6.0 81 1.4 NW 19 20 10 11 1013.6 1013.6 10.6
21/10:30pm 9.2 4.7 5.9 80 1.5 NW 19 20 10 11 1013.8 1013.8 10.6
21/10:00pm 9.3 4.3 6.4 82 1.3 WNW 22 24 12 13 1013.9 1013.9 10.6
21/09:30pm 9.7 5.2 6.8 82 1.4 WNW 20 20 11 11 1013.9 1013.9 10.6
21/09:00pm 9.8 5.4 7.2 84 1.2 WNW 20 22 11 12 1014.0 1014.0 10.6
21/08:30pm 9.9 5.5 7.3 84 1.2 WNW 20 22 11 12 1014.0 1014.0 10.6
21/08:00pm 10.1 5.9 7.5 84 1.2 WNW 19 20 10 11 1013.8 1013.8 10.6
21/07:30pm 10.2 6.0 7.6 84 1.2 WNW 19 19 10 10 1013.8 1013.8 10.6
21/07:00pm 10.0 6.3 7.9 87 1.0 W 17 19 9 10 1013.6 1013.6 10.6
21/06:30pm 10.5 6.9 8.4 87 1.0 WSW 17 20 9 11 1013.8 1013.8 10.6
21/06:00pm 10.7 7.9 8.6 87 1.0 SW 13 15 7 8 1013.7 1013.7 10.6
21/05:30pm 11.2 10.1 8.4 83 1.4 WSW 4 11 2 6 1013.7 1013.7 10.6
21/05:00pm 11.4 10.6 8.3 81 1.5 W 2 7 1 4 1013.6 1013.6 10.6
21/04:30pm 11.3 10.1 8.0 80 1.6 SE 4 11 2 6 1013.3 1013.3 10.6

Other Formats:

Comma delimited format used in spreadsheet applications
http://www.bom.gov.au/fwo/IDS60801/IDS60801.94822.axf

JavaScript Object Notation format (JSON) in row-major order
http://www.bom.gov.au/fwo/IDS60801/IDS60801.94822.json